Time,TemperatureF,DewpointF,PressureIn,WindDirection,WindDirectionDegrees,WindSpeedMPH,WindSpeedGustMPH,Humidity,HourlyPrecipIn,Conditions,Clouds,dailyrainin,SoftwareType,DateUTC
2013-12-06 00:08:00,55.8,55.0,30.09,SSE,150,0.0,1.0,96,0.04,,,0.17,weatherlink.com 1.10,2013-12-06 05:08:00,
2013-12-06 00:23:00,56.3,56.0,30.10,West,265,1.0,6.0,97,0.02,,,0.17,weatherlink.com 1.10,2013-12-06 05:23:00,
2013-12-06 00:38:00,56.8,56.0,30.10,South,170,0.0,6.0,97,0.00,,,0.17,weatherlink.com 1.10,2013-12-06 05:38:00,
2013-12-06 00:53:00,55.7,55.0,30.09,SSE,154,0.0,3.0,96,0.00,,,0.17,weatherlink.com 1.10,2013-12-06 05:53:00,
2013-12-06 01:08:00,54.5,53.0,30.08,SSE,154,0.0,0.0,96,0.00,,,0.17,weatherlink.com 1.10,2013-12-06 06:08:00,
2013-12-06 01:23:00,54.6,54.0,30.08,SSE,168,0.0,1.0,97,0.00,,,0.17,weatherlink.com 1.10,2013-12-06 06:23:00,
2013-12-06 01:38:00,55.5,55.0,30.09,West,279,2.0,7.0,97,0.00,,,0.17,weatherlink.com 1.10,2013-12-06 06:38:00,
2013-12-06 01:53:00,53.2,52.0,30.08,NNW,334,2.0,6.0,95,0.00,,,0.17,weatherlink.com 1.10,2013-12-06 06:53:00,
2013-12-06 02:08:00,49.0,47.0,30.09,West,277,0.0,6.0,94,0.00,,,0.17,weatherlink.com 1.10,2013-12-06 07:08:00,
2013-12-06 02:23:00,47.6,46.0,30.09,North,355,0.0,4.0,95,0.00,,,0.17,weatherlink.com 1.10,2013-12-06 07:23:00,
2013-12-06 02:38:00,46.6,46.0,30.10,NNW,329,1.0,4.0,96,0.00,,,0.17,weatherlink.com 1.10,2013-12-06 07:38:00,
2013-12-06 02:53:00,45.8,45.0,30.13,WNW,300,1.0,3.0,96,0.00,,,0.17,weatherlink.com 1.10,2013-12-06 07:53:00,
2013-12-06 03:09:00,43.7,42.0,30.12,West,275,0.0,5.0,95,0.01,,,0.18,weatherlink.com 1.10,2013-12-06 08:09:00,
2013-12-06 03:24:00,42.4,41.0,30.11,NNW,340,0.0,7.0,95,0.01,,,0.18,weatherlink.com 1.10,2013-12-06 08:24:00,
2013-12-06 03:39:00,42.0,41.0,30.11,NNW,341,2.0,4.0,96,0.01,,,0.18,weatherlink.com 1.10,2013-12-06 08:39:00,
2013-12-06 03:54:00,41.7,41.0,30.11,NNW,341,0.0,0.0,96,0.01,,,0.18,weatherlink.com 1.10,2013-12-06 08:54:00,
2013-12-06 04:09:00,41.4,40.0,30.10,NNW,341,0.0,1.0,96,0.00,,,0.18,weatherlink.com 1.10,2013-12-06 09:09:00,
2013-12-06 04:24:00,41.3,40.0,30.12,NNW,341,0.0,0.0,96,0.00,,,0.18,weatherlink.com 1.10,2013-12-06 09:24:00,
2013-12-06 04:39:00,41.2,40.0,30.12,SW,225,0.0,1.0,96,0.01,,,0.19,weatherlink.com 1.10,2013-12-06 09:39:00,
2013-12-06 04:54:00,41.0,40.0,30.12,SW,225,0.0,1.0,96,0.02,,,0.20,weatherlink.com 1.10,2013-12-06 09:54:00,
2013-12-06 05:09:00,41.0,40.0,30.12,SW,225,0.0,0.0,96,0.03,,,0.21,weatherlink.com 1.10,2013-12-06 10:09:00,
2013-12-06 05:24:00,41.0,40.0,30.13,SW,229,0.0,1.0,96,0.03,,,0.00,weatherlink.com 1.10,2013-12-06 10:24:00,
2013-12-06 05:39:00,40.5,40.0,30.14,WSW,249,0.0,1.0,96,0.02,,,0.00,weatherlink.com 1.10,2013-12-06 10:39:00,
2013-12-06 05:54:00,40.3,39.0,30.13,WSW,249,0.0,0.0,96,0.01,,,0.00,weatherlink.com 1.10,2013-12-06 10:54:00,
2013-12-06 06:09:00,40.4,39.0,30.14,NW,318,0.0,3.0,96,0.00,,,0.00,weatherlink.com 1.10,2013-12-06 11:09:00,
2013-12-06 06:24:00,40.1,39.0,30.14,NW,319,0.0,3.0,96,0.00,,,0.00,weatherlink.com 1.10,2013-12-06 11:24:00,
2013-12-06 06:39:00,39.4,38.0,30.14,North,355,3.0,3.0,96,0.00,,,0.00,weatherlink.com 1.10,2013-12-06 11:39:00,
2013-12-06 06:54:00,39.4,38.0,30.14,WNW,295,3.0,5.0,96,0.00,,,0.00,weatherlink.com 1.10,2013-12-06 11:54:00,
2013-12-06 07:09:00,39.1,38.0,30.15,NNW,328,0.0,5.0,96,0.00,,,0.00,weatherlink.com 1.10,2013-12-06 12:09:00,
2013-12-06 07:24:00,39.0,38.0,30.17,NNW,328,0.0,4.0,96,0.00,,,0.00,weatherlink.com 1.10,2013-12-06 12:24:00,
2013-12-06 07:39:00,38.6,38.0,30.21,NW,321,1.0,4.0,96,0.06,,,0.06,weatherlink.com 1.10,2013-12-06 12:39:00,
2013-12-06 07:54:00,37.9,37.0,30.22,NW,313,1.0,5.0,96,0.16,,,0.16,weatherlink.com 1.10,2013-12-06 12:54:00,
2013-12-06 08:09:00,37.0,36.0,30.17,East,101,0.0,4.0,96,0.20,,,0.20,weatherlink.com 1.10,2013-12-06 13:09:00,
2013-12-06 08:24:00,36.5,36.0,30.19,ESE,115,0.0,1.0,96,0.35,,,0.35,weatherlink.com 1.10,2013-12-06 13:24:00,
2013-12-06 08:39:00,37.6,37.0,30.19,ENE,63,0.0,1.0,97,0.43,,,0.51,weatherlink.com 1.10,2013-12-06 13:39:00,
2013-12-06 08:54:00,37.9,37.0,30.17,ENE,63,1.0,1.0,97,0.40,,,0.56,weatherlink.com 1.10,2013-12-06 13:54:00,
2013-12-06 09:09:00,38.6,38.0,30.18,WSW,246,0.0,2.0,97,0.37,,,0.57,weatherlink.com 1.10,2013-12-06 14:09:00,
2013-12-06 09:24:00,39.9,39.0,30.19,SE,144,1.0,10.0,97,0.21,,,0.57,weatherlink.com 1.10,2013-12-06 14:24:00,
2013-12-06 09:39:00,40.3,40.0,30.18,South,175,0.0,3.0,97,0.06,,,0.57,weatherlink.com 1.10,2013-12-06 14:39:00,
2013-12-06 09:54:00,40.6,40.0,30.20,NNW,346,0.0,0.0,97,0.01,,,0.57,weatherlink.com 1.10,2013-12-06 14:54:00,
2013-12-06 10:09:00,41.0,40.0,30.19,NNW,346,0.0,1.0,97,0.00,,,0.57,weatherlink.com 1.10,2013-12-06 15:09:00,
2013-12-06 10:24:00,43.2,42.0,30.16,ESE,115,3.0,10.0,97,0.00,,,0.57,weatherlink.com 1.10,2013-12-06 15:24:00,
2013-12-06 10:39:00,44.0,43.0,30.17,SSE,152,4.0,7.0,97,0.00,,,0.57,weatherlink.com 1.10,2013-12-06 15:39:00,
2013-12-06 10:55:00,43.8,43.0,30.18,ESE,115,5.0,10.0,97,0.01,,,0.58,weatherlink.com 1.10,2013-12-06 15:55:00,
2013-12-06 11:10:00,43.9,43.0,30.18,SE,132,0.0,6.0,96,0.02,,,0.59,weatherlink.com 1.10,2013-12-06 16:10:00,
2013-12-06 11:25:00,44.1,43.0,30.17,ESE,115,0.0,3.0,97,0.03,,,0.60,weatherlink.com 1.10,2013-12-06 16:25:00,
2013-12-06 11:40:00,49.4,49.0,30.16,East,90,2.0,7.0,98,0.04,,,0.61,weatherlink.com 1.10,2013-12-06 16:40:00,
2013-12-06 11:55:00,51.4,51.0,30.15,ESE,107,1.0,5.0,98,0.03,,,0.61,weatherlink.com 1.10,2013-12-06 16:55:00,
2013-12-06 12:10:00,51.6,51.0,30.13,ESE,106,0.0,2.0,98,0.02,,,0.61,weatherlink.com 1.10,2013-12-06 17:10:00,
2013-12-06 12:25:00,51.9,51.0,30.13,ESE,111,0.0,3.0,98,0.02,,,0.62,weatherlink.com 1.10,2013-12-06 17:25:00,
2013-12-06 12:40:00,51.2,50.0,30.12,SSE,155,3.0,9.0,97,0.02,,,0.63,weatherlink.com 1.10,2013-12-06 17:40:00,
2013-12-06 12:55:00,50.4,50.0,30.12,ESE,106,0.0,5.0,97,0.03,,,0.64,weatherlink.com 1.10,2013-12-06 17:55:00,
2013-12-06 13:10:00,50.5,50.0,30.11,ENE,78,0.0,1.0,97,0.04,,,0.65,weatherlink.com 1.10,2013-12-06 18:10:00,
2013-12-06 13:25:00,49.1,48.0,30.12,West,259,1.0,5.0,96,0.05,,,0.67,weatherlink.com 1.10,2013-12-06 18:25:00,
2013-12-06 13:40:00,47.0,46.0,30.11,WNW,300,0.0,2.0,95,0.04,,,0.67,weatherlink.com 1.10,2013-12-06 18:40:00,
2013-12-06 13:55:00,45.6,45.0,30.11,WNW,300,0.0,0.0,96,0.04,,,0.68,weatherlink.com 1.10,2013-12-06 18:55:00,
2013-12-06 14:10:00,45.6,45.0,30.09,WNW,300,0.0,3.0,96,0.03,,,0.68,weatherlink.com 1.10,2013-12-06 19:10:00,
2013-12-06 14:25:00,44.8,44.0,30.08,WNW,300,0.0,3.0,96,0.01,,,0.68,weatherlink.com 1.10,2013-12-06 19:25:00,
2013-12-06 14:40:00,44.4,43.0,30.07,WNW,300,0.0,0.0,96,0.01,,,0.68,weatherlink.com 1.10,2013-12-06 19:40:00,
2013-12-06 14:55:00,44.7,44.0,30.07,WNW,300,0.0,0.0,97,0.00,,,0.68,weatherlink.com 1.10,2013-12-06 19:55:00,
2013-12-06 15:10:00,42.4,41.0,30.11,WSW,244,3.0,8.0,95,0.01,,,0.69,weatherlink.com 1.10,2013-12-06 20:10:00,
2013-12-06 15:25:00,41.2,40.0,30.11,West,271,0.0,3.0,96,0.03,,,0.71,weatherlink.com 1.10,2013-12-06 20:25:00,
2013-12-06 15:40:00,40.5,40.0,30.10,SW,227,0.0,3.0,96,0.03,,,0.71,weatherlink.com 1.10,2013-12-06 20:40:00,
2013-12-06 15:55:00,39.7,39.0,30.11,WSW,239,0.0,1.0,96,0.03,,,0.71,weatherlink.com 1.10,2013-12-06 20:55:00,
2013-12-06 16:10:00,39.3,38.0,30.12,NNW,331,2.0,4.0,96,0.02,,,0.71,weatherlink.com 1.10,2013-12-06 21:10:00,
2013-12-06 16:25:00,38.1,37.0,30.15,NNW,336,1.0,8.0,95,0.00,,,0.71,weatherlink.com 1.10,2013-12-06 21:25:00,
2013-12-06 16:40:00,36.4,35.0,30.14,WNW,295,0.0,9.0,96,0.00,,,0.71,weatherlink.com 1.10,2013-12-06 21:40:00,
2013-12-06 16:55:00,36.1,35.0,30.13,NNW,335,0.0,5.0,96,0.00,,,0.71,weatherlink.com 1.10,2013-12-06 21:55:00,
2013-12-06 17:10:00,35.6,35.0,30.13,NNW,340,0.0,4.0,96,0.00,,,0.71,weatherlink.com 1.10,2013-12-06 22:10:00,
2013-12-06 17:25:00,35.2,34.0,30.18,North,355,2.0,16.0,96,0.00,,,0.71,weatherlink.com 1.10,2013-12-06 22:25:00,
2013-12-06 17:40:00,34.4,33.0,30.17,WNW,285,1.0,6.0,96,0.01,,,0.72,weatherlink.com 1.10,2013-12-06 22:40:00,
2013-12-06 17:55:00,33.9,33.0,30.15,WSW,249,2.0,7.0,96,0.01,,,0.72,weatherlink.com 1.10,2013-12-06 22:55:00,
2013-12-06 18:10:00,33.6,33.0,30.17,WSW,257,0.0,2.0,96,0.02,,,0.73,weatherlink.com 1.10,2013-12-06 23:10:00,
2013-12-06 18:25:00,34.4,34.0,30.22,NNW,343,6.0,8.0,97,0.02,,,0.74,weatherlink.com 1.10,2013-12-06 23:25:00,
2013-12-06 18:40:00,34.3,34.0,30.21,NW,311,0.0,7.0,97,0.07,,,0.79,weatherlink.com 1.10,2013-12-06 23:40:00,
2013-12-06 18:55:00,33.9,33.0,30.23,NW,311,0.0,5.0,96,0.09,,,0.81,weatherlink.com 1.10,2013-12-06 23:55:00,
2013-12-06 19:10:00,33.6,33.0,30.23,NNW,338,0.0,3.0,96,0.10,,,0.83,weatherlink.com 1.10,2013-12-07 00:10:00,
2013-12-06 19:25:00,33.3,32.0,30.26,NW,323,2.0,4.0,96,0.09,,,0.83,weatherlink.com 1.10,2013-12-07 00:25:00,
2013-12-06 19:40:00,33.3,32.0,30.28,West,277,0.0,3.0,96,0.05,,,0.84,weatherlink.com 1.10,2013-12-07 00:40:00,
2013-12-06 19:55:00,33.2,32.0,30.27,WSW,246,0.0,1.0,96,0.04,,,0.85,weatherlink.com 1.10,2013-12-07 00:55:00,
2013-12-06 20:10:00,33.5,33.0,30.26,NNW,346,1.0,3.0,96,0.02,,,0.85,weatherlink.com 1.10,2013-12-07 01:10:00,
2013-12-06 20:25:00,33.3,32.0,30.26,NNW,335,0.0,3.0,96,0.04,,,0.87,weatherlink.com 1.10,2013-12-07 01:25:00,
2013-12-06 20:40:00,33.4,32.0,30.27,NNW,335,0.0,0.0,96,0.04,,,0.88,weatherlink.com 1.10,2013-12-07 01:40:00,
2013-12-06 20:55:00,33.2,32.0,30.27,West,261,0.0,2.0,96,0.05,,,0.90,weatherlink.com 1.10,2013-12-07 01:55:00,
2013-12-06 21:10:00,33.2,33.0,30.29,NNW,345,0.0,1.0,97,0.09,,,0.94,weatherlink.com 1.10,2013-12-07 02:10:00,
2013-12-06 21:25:00,33.3,33.0,30.29,NW,306,0.0,2.0,97,0.08,,,0.95,weatherlink.com 1.10,2013-12-07 02:25:00,
2013-12-06 21:40:00,32.6,32.0,30.32,NNW,333,0.0,4.0,96,0.08,,,0.96,weatherlink.com 1.10,2013-12-07 02:40:00,
2013-12-06 21:56:00,32.6,32.0,30.32,NNW,333,0.0,5.0,96,0.08,,,0.98,weatherlink.com 1.10,2013-12-07 02:56:00,
2013-12-06 22:11:00,32.5,32.0,30.30,NNW,337,2.0,5.0,96,0.05,,,0.99,weatherlink.com 1.10,2013-12-07 03:11:00,
2013-12-06 22:26:00,32.4,31.0,30.30,North,350,0.0,5.0,96,0.05,,,1.00,weatherlink.com 1.10,2013-12-07 03:26:00,
2013-12-06 22:41:00,31.9,31.0,30.34,West,268,0.0,2.0,96,0.05,,,1.02,weatherlink.com 1.10,2013-12-07 03:41:00,
2013-12-06 22:56:00,32.5,32.0,30.32,NNW,339,0.0,3.0,96,0.05,,,1.03,weatherlink.com 1.10,2013-12-07 03:56:00,
2013-12-06 23:11:00,32.3,31.0,30.30,WSW,244,1.0,3.0,96,0.04,,,1.03,weatherlink.com 1.10,2013-12-07 04:11:00,
2013-12-06 23:26:00,32.5,32.0,30.31,NNW,336,0.0,3.0,97,0.03,,,1.03,weatherlink.com 1.10,2013-12-07 04:26:00,
2013-12-06 23:41:00,32.3,31.0,30.33,SW,232,1.0,2.0,96,0.01,,,1.03,weatherlink.com 1.10,2013-12-07 04:41:00,
2013-12-06 23:56:00,32.1,31.0,30.32,NW,315,0.0,2.0,96,0.00,,,1.03,weatherlink.com 1.10,2013-12-07 04:56:00,